createdAt,value
2018-11-23T00:00:00.240Z,6.62
2018-11-23T00:00:31.434Z,6.66
2018-11-23T00:01:02.587Z,6.67
2018-11-23T00:01:33.692Z,6.70
2018-11-23T00:02:04.793Z,6.71
2018-11-23T00:02:35.889Z,6.69
2018-11-23T00:03:07.018Z,6.69
2018-11-23T00:03:41.182Z,6.71
2018-11-23T00:04:12.322Z,6.70
2018-11-23T00:04:43.438Z,6.70
2018-11-23T00:05:14.547Z,6.68
2018-11-23T00:05:45.687Z,6.69
2018-11-23T00:06:16.823Z,6.73
2018-11-23T00:06:47.923Z,6.76
2018-11-23T00:07:19.755Z,6.77
2018-11-23T00:07:51.500Z,6.79
2018-11-23T00:08:22.603Z,6.76
2018-11-23T00:08:54.352Z,6.76
2018-11-23T00:09:26.039Z,6.76
2018-11-23T00:09:57.151Z,6.74
2018-11-23T00:10:29.049Z,6.75
2018-11-23T00:11:00.172Z,6.75
2018-11-23T00:11:31.451Z,6.75
2018-11-23T00:12:02.598Z,6.76
2018-11-23T00:12:33.721Z,6.80
2018-11-23T00:13:04.865Z,6.83
2018-11-23T00:13:35.983Z,6.85
2018-11-23T00:14:07.186Z,6.87
2018-11-23T00:14:38.310Z,6.88
2018-11-23T00:15:09.443Z,6.91
2018-11-23T00:15:40.603Z,6.92
2018-11-23T00:16:11.723Z,6.91
2018-11-23T00:16:42.861Z,6.87
2018-11-23T00:17:13.961Z,6.87
2018-11-23T00:17:45.774Z,6.84
2018-11-23T00:18:17.462Z,6.81
2018-11-23T00:18:48.562Z,6.80
2018-11-23T00:19:19.661Z,6.81
2018-11-23T00:19:50.766Z,6.76
2018-11-23T00:20:22.787Z,6.70
2018-11-23T00:20:53.894Z,6.66
2018-11-23T00:21:24.998Z,6.71
2018-11-23T00:21:56.148Z,6.73
2018-11-23T00:22:27.272Z,6.76
2018-11-23T00:22:58.382Z,6.77
2018-11-23T00:23:29.514Z,6.78
2018-11-23T00:24:00.621Z,6.76
2018-11-23T00:24:31.721Z,6.71
2018-11-23T00:25:02.847Z,6.69
2018-11-23T00:25:33.948Z,6.76
2018-11-23T00:26:05.061Z,6.73
2018-11-23T00:26:36.199Z,6.68
2018-11-23T00:27:07.362Z,6.67
2018-11-23T00:27:38.475Z,6.67
2018-11-23T00:28:09.588Z,6.69
2018-11-23T00:28:40.683Z,6.67
2018-11-23T00:29:11.788Z,6.62
2018-11-23T00:29:43.531Z,6.59
2018-11-23T00:30:14.663Z,6.48
2018-11-23T00:30:45.768Z,6.49
2018-11-23T00:31:17.511Z,6.52
2018-11-23T00:31:48.647Z,6.54
2018-11-23T00:32:19.770Z,6.58
2018-11-23T00:32:50.883Z,6.63
2018-11-23T00:33:21.982Z,6.67
2018-11-23T00:33:53.923Z,6.72
2018-11-23T00:34:25.339Z,6.72
2018-11-23T00:34:56.477Z,6.73
2018-11-23T00:35:27.572Z,6.72
2018-11-23T00:35:58.680Z,6.71
2018-11-23T00:36:29.774Z,6.71
2018-11-23T00:37:00.910Z,6.78
2018-11-23T00:37:32.277Z,6.80
2018-11-23T00:38:03.411Z,6.81
2018-11-23T00:38:34.507Z,6.84
2018-11-23T00:39:06.311Z,6.83
2018-11-23T00:39:37.407Z,6.83
2018-11-23T00:40:08.529Z,6.81
2018-11-23T00:40:39.641Z,6.83
2018-11-23T00:41:10.796Z,6.83
2018-11-23T00:41:41.930Z,6.85
2018-11-23T00:42:13.106Z,6.82
2018-11-23T00:42:45.267Z,6.77
2018-11-23T00:43:16.402Z,6.77
2018-11-23T00:43:47.613Z,6.77
2018-11-23T00:44:18.715Z,6.72
2018-11-23T00:44:49.811Z,6.69
2018-11-23T00:45:20.977Z,6.64
2018-11-23T00:45:52.123Z,6.63
2018-11-23T00:46:23.299Z,6.64
2018-11-23T00:46:54.545Z,6.61
2018-11-23T00:47:25.675Z,6.59
2018-11-23T00:47:56.803Z,6.58
2018-11-23T00:48:27.915Z,6.59
2018-11-23T00:48:59.030Z,6.59
2018-11-23T00:49:30.195Z,6.57
2018-11-23T00:50:01.895Z,6.58
2018-11-23T00:50:34.061Z,6.55
2018-11-23T00:51:06.071Z,6.53
2018-11-23T00:51:37.358Z,6.53
2018-11-23T00:52:08.471Z,6.52
2018-11-23T00:52:39.567Z,6.53
2018-11-23T00:53:10.694Z,6.55
2018-11-23T00:53:41.802Z,6.52
2018-11-23T00:54:13.453Z,6.55
2018-11-23T00:54:44.590Z,6.61
2018-11-23T00:55:15.691Z,6.67
2018-11-23T00:55:46.796Z,6.63
2018-11-23T00:56:17.900Z,6.61
2018-11-23T00:56:49.103Z,6.59
2018-11-23T00:57:20.198Z,6.55
2018-11-23T00:57:52.205Z,6.55
2018-11-23T00:58:23.314Z,6.53
2018-11-23T00:58:54.428Z,6.51
2018-11-23T00:59:25.531Z,6.47
2018-11-23T00:59:56.657Z,6.46
2018-11-23T01:00:27.783Z,6.46
2018-11-23T01:00:58.920Z,6.49
2018-11-23T01:01:31.090Z,6.49
2018-11-23T01:02:02.261Z,6.48
2018-11-23T01:02:33.377Z,6.50
2018-11-23T01:03:04.527Z,6.49
2018-11-23T01:03:35.625Z,6.46
2018-11-23T01:04:06.724Z,6.43
2018-11-23T01:04:37.822Z,6.44
2018-11-23T01:05:09.598Z,6.37
2018-11-23T01:05:40.791Z,6.35
2018-11-23T01:06:11.890Z,6.40
2018-11-23T01:06:43.043Z,6.37
2018-11-23T01:07:14.185Z,6.39
2018-11-23T01:07:45.288Z,6.39
2018-11-23T01:08:16.432Z,6.42
2018-11-23T01:08:47.542Z,6.42
2018-11-23T01:09:18.702Z,6.43
2018-11-23T01:09:50.981Z,6.44
2018-11-23T01:10:22.084Z,6.43
2018-11-23T01:10:53.248Z,6.42
2018-11-23T01:11:24.376Z,6.38
2018-11-23T01:11:55.630Z,6.37
2018-11-23T01:12:27.813Z,6.40
2018-11-23T01:12:58.989Z,6.42
2018-11-23T01:13:30.118Z,6.42
2018-11-23T01:14:01.235Z,6.40
2018-11-23T01:14:32.359Z,6.39
2018-11-23T01:15:03.464Z,6.42
2018-11-23T01:15:35.254Z,6.40
2018-11-23T01:16:06.350Z,6.37
2018-11-23T01:16:37.442Z,6.37
2018-11-23T01:17:08.587Z,6.37
2018-11-23T01:17:39.680Z,6.37
2018-11-23T01:18:10.775Z,6.34
2018-11-23T01:18:41.870Z,6.35
2018-11-23T01:19:12.958Z,6.38
2018-11-23T01:19:44.054Z,6.38
2018-11-23T01:20:15.168Z,6.37
2018-11-23T01:20:46.272Z,6.35
2018-11-23T01:21:17.372Z,6.35
2018-11-23T01:21:48.460Z,6.37
2018-11-23T01:22:19.601Z,6.44
2018-11-23T01:22:50.702Z,6.50
2018-11-23T01:23:21.815Z,6.55
2018-11-23T01:23:52.921Z,6.58
2018-11-23T01:24:24.089Z,6.61
2018-11-23T01:24:55.226Z,6.67
2018-11-23T01:25:26.322Z,6.62
2018-11-23T01:25:57.435Z,6.63
2018-11-23T01:26:28.539Z,6.62
2018-11-23T01:26:59.636Z,6.65
2018-11-23T01:27:30.733Z,6.64
2018-11-23T01:28:01.833Z,6.65
2018-11-23T01:28:32.972Z,6.67
2018-11-23T01:29:04.076Z,6.69
2018-11-23T01:29:35.180Z,6.74
2018-11-23T01:30:06.291Z,6.77
2018-11-23T01:30:37.389Z,6.78
2018-11-23T01:31:08.536Z,6.77
2018-11-23T01:31:39.649Z,6.80
2018-11-23T01:32:10.745Z,6.50
2018-11-23T01:32:41.850Z,6.82
2018-11-23T01:33:12.959Z,6.84
2018-11-23T01:33:44.060Z,6.83
2018-11-23T01:34:15.164Z,6.86
2018-11-23T01:34:46.292Z,6.86
2018-11-23T01:35:17.388Z,6.87
2018-11-23T01:35:48.501Z,6.86
2018-11-23T01:36:19.595Z,6.85
2018-11-23T01:36:50.697Z,6.86
2018-11-23T01:37:21.793Z,6.87
2018-11-23T01:37:52.883Z,6.86
2018-11-23T01:38:23.976Z,6.87
2018-11-23T01:38:55.067Z,6.87
2018-11-23T01:39:26.167Z,6.85
2018-11-23T01:39:57.303Z,6.85
2018-11-23T01:40:28.416Z,6.86
2018-11-23T01:40:59.560Z,6.86
2018-11-23T01:41:30.699Z,6.86
2018-11-23T01:42:01.847Z,6.91
2018-11-23T01:42:32.954Z,6.95
2018-11-23T01:43:04.054Z,6.97
2018-11-23T01:43:35.149Z,6.98
2018-11-23T01:44:06.256Z,7.01
2018-11-23T01:44:37.359Z,7.02
2018-11-23T01:45:08.467Z,7.03
2018-11-23T01:45:39.573Z,7.03
2018-11-23T01:46:10.677Z,7.09
2018-11-23T01:46:41.781Z,7.10
2018-11-23T01:47:12.910Z,6.96
2018-11-23T01:47:44.096Z,6.91
2018-11-23T01:48:15.279Z,6.89
2018-11-23T01:48:46.390Z,6.91
2018-11-23T01:49:17.524Z,6.94
2018-11-23T01:49:48.652Z,6.98
2018-11-23T01:50:19.852Z,6.99
2018-11-23T01:50:50.957Z,6.98
2018-11-23T01:51:22.070Z,7.00
2018-11-23T01:51:53.205Z,7.02
2018-11-23T01:52:24.336Z,7.04
2018-11-23T01:52:55.431Z,7.07
2018-11-23T01:53:26.529Z,7.06
2018-11-23T01:53:58.543Z,7.06
2018-11-23T01:54:29.643Z,7.04
2018-11-23T01:55:00.748Z,7.02
2018-11-23T01:55:32.029Z,7.01
2018-11-23T01:56:03.142Z,7.00
2018-11-23T01:56:34.239Z,6.83
2018-11-23T01:57:05.345Z,7.00
2018-11-23T01:57:36.453Z,7.00
2018-11-23T01:58:08.268Z,7.01
2018-11-23T01:58:39.363Z,7.01
2018-11-23T01:59:10.460Z,7.03
2018-11-23T01:59:41.642Z,7.00
2018-11-23T02:00:12.751Z,6.99
2018-11-23T02:00:43.886Z,6.99
2018-11-23T02:01:14.992Z,7.01
2018-11-23T02:01:46.101Z,7.02
2018-11-23T02:02:17.205Z,7.02
2018-11-23T02:02:48.332Z,6.97
2018-11-23T02:03:19.434Z,6.95
2018-11-23T02:03:50.580Z,6.95
2018-11-23T02:04:21.727Z,6.91
2018-11-23T02:04:52.832Z,6.90
2018-11-23T02:05:23.972Z,6.89
2018-11-23T02:05:55.071Z,6.89
2018-11-23T02:06:26.726Z,6.85
2018-11-23T02:06:57.858Z,6.82
2018-11-23T02:07:28.962Z,6.81
2018-11-23T02:08:00.063Z,6.78
2018-11-23T02:08:31.155Z,6.75
2018-11-23T02:09:02.300Z,6.76
2018-11-23T02:09:33.413Z,6.75
2018-11-23T02:10:04.541Z,6.74
2018-11-23T02:10:35.748Z,6.71
2018-11-23T02:11:06.847Z,6.66
2018-11-23T02:11:38.071Z,6.68
2018-11-23T02:12:09.099Z,6.68
2018-11-23T02:12:40.201Z,6.68
2018-11-23T02:13:11.303Z,6.71
2018-11-23T02:13:42.421Z,6.71
2018-11-23T02:14:13.576Z,6.73
2018-11-23T02:14:44.709Z,6.73
2018-11-23T02:15:15.815Z,6.73
2018-11-23T02:15:46.912Z,6.75
2018-11-23T02:16:18.004Z,6.76
2018-11-23T02:16:49.106Z,6.74
2018-11-23T02:17:20.329Z,6.72
2018-11-23T02:17:51.432Z,6.68
2018-11-23T02:18:22.527Z,6.71
2018-11-23T02:18:57.241Z,6.72
2018-11-23T02:19:28.376Z,6.74
2018-11-23T02:19:59.481Z,6.75
2018-11-23T02:20:30.580Z,6.74
2018-11-23T02:21:01.688Z,6.72
2018-11-23T02:21:32.927Z,6.69
2018-11-23T02:22:04.034Z,6.65
2018-11-23T02:22:35.126Z,6.60
2018-11-23T02:23:06.240Z,6.59
2018-11-23T02:23:38.123Z,6.56
2018-11-23T02:24:09.226Z,6.54
2018-11-23T02:24:40.371Z,6.54
2018-11-23T02:25:11.517Z,6.53
2018-11-23T02:25:42.624Z,6.52
2018-11-23T02:26:13.736Z,6.54
2018-11-23T02:26:44.868Z,6.51
2018-11-23T02:27:15.973Z,6.49
2018-11-23T02:27:48.043Z,6.52
2018-11-23T02:28:19.143Z,6.47
2018-11-23T02:28:50.257Z,6.50
2018-11-23T02:29:21.363Z,6.48
2018-11-23T02:29:52.468Z,6.48
2018-11-23T02:30:23.602Z,6.47
2018-11-23T02:30:54.707Z,6.47
2018-11-23T02:31:25.808Z,6.50
2018-11-23T02:31:56.924Z,6.49
2018-11-23T02:32:28.052Z,6.50
2018-11-23T02:32:59.167Z,6.51
2018-11-23T02:33:30.286Z,6.53
2018-11-23T02:34:01.398Z,6.54
2018-11-23T02:34:32.510Z,6.54
2018-11-23T02:35:03.613Z,6.55
2018-11-23T02:35:34.767Z,6.53
2018-11-23T02:36:05.870Z,6.54
2018-11-23T02:36:36.987Z,6.55
2018-11-23T02:37:08.088Z,6.55
2018-11-23T02:37:39.195Z,6.53
2018-11-23T02:38:10.293Z,6.48
2018-11-23T02:38:41.396Z,6.46
2018-11-23T02:39:12.515Z,6.45
2018-11-23T02:39:43.622Z,6.43
2018-11-23T02:40:14.732Z,6.38
2018-11-23T02:40:45.876Z,6.37
2018-11-23T02:41:17.785Z,6.40
2018-11-23T02:41:48.902Z,6.45
2018-11-23T02:42:20.011Z,6.49
2018-11-23T02:42:51.123Z,6.52
2018-11-23T02:43:22.235Z,6.52
2018-11-23T02:43:53.336Z,6.51
2018-11-23T02:44:24.441Z,6.53
2018-11-23T02:44:55.548Z,6.55
2018-11-23T02:45:27.721Z,6.57
2018-11-23T02:45:58.860Z,6.58
2018-11-23T02:46:29.959Z,6.60
2018-11-23T02:47:01.064Z,6.64
2018-11-23T02:47:32.165Z,6.68
2018-11-23T02:48:03.279Z,6.71
2018-11-23T02:48:34.382Z,6.73
2018-11-23T02:49:05.495Z,6.72
2018-11-23T02:49:36.639Z,6.68
2018-11-23T02:50:07.747Z,6.68
2018-11-23T02:50:38.844Z,6.67
2018-11-23T02:51:10.742Z,6.68
2018-11-23T02:51:41.831Z,6.70
2018-11-23T02:52:12.937Z,6.71
2018-11-23T02:52:44.037Z,6.71
2018-11-23T02:53:15.153Z,6.69
2018-11-23T02:53:46.272Z,6.69
2018-11-23T02:54:17.362Z,6.69
2018-11-23T02:54:48.462Z,6.72
2018-11-23T02:55:21.117Z,6.75
2018-11-23T02:55:52.217Z,6.78
2018-11-23T02:56:23.355Z,6.82
2018-11-23T02:56:54.577Z,6.84
2018-11-23T02:57:25.677Z,6.84
2018-11-23T02:57:56.775Z,6.84
2018-11-23T02:58:27.922Z,6.85
2018-11-23T02:58:59.026Z,6.87
2018-11-23T02:59:30.130Z,6.91
2018-11-23T03:00:01.233Z,6.91
2018-11-23T03:00:32.331Z,6.93
2018-11-23T03:01:03.513Z,6.95
2018-11-23T03:01:34.620Z,6.98
2018-11-23T03:02:05.725Z,6.99
2018-11-23T03:02:36.823Z,7.01
2018-11-23T03:03:07.926Z,7.09
2018-11-23T03:03:39.064Z,7.19
2018-11-23T03:04:10.167Z,7.28
2018-11-23T03:04:41.272Z,7.37
2018-11-23T03:05:12.423Z,7.45
2018-11-23T03:05:43.519Z,7.54
2018-11-23T03:06:14.618Z,7.63
2018-11-23T03:06:45.719Z,7.75
2018-11-23T03:07:16.824Z,7.81
2018-11-23T03:07:47.982Z,7.83
2018-11-23T03:08:19.079Z,7.85
2018-11-23T03:08:50.173Z,7.92
2018-11-23T03:09:21.296Z,7.96
2018-11-23T03:09:52.402Z,8.00
2018-11-23T03:10:23.549Z,7.99
2018-11-23T03:10:54.693Z,7.98
2018-11-23T03:11:25.783Z,7.99
2018-11-23T03:11:56.948Z,8.01
2018-11-23T03:12:28.087Z,8.05
2018-11-23T03:12:59.226Z,8.08
2018-11-23T03:13:30.362Z,8.17
2018-11-23T03:14:01.502Z,8.23
2018-11-23T03:14:32.692Z,8.30
2018-11-23T03:15:03.840Z,8.39
2018-11-23T03:15:34.931Z,8.44
2018-11-23T03:16:06.139Z,8.48
2018-11-23T03:16:37.234Z,8.51
2018-11-23T03:17:08.383Z,8.53
2018-11-23T03:17:39.478Z,8.52
2018-11-23T03:18:10.583Z,8.51
2018-11-23T03:18:41.703Z,8.49
2018-11-23T03:19:12.833Z,8.42
2018-11-23T03:19:43.952Z,8.38
2018-11-23T03:20:15.059Z,8.38
2018-11-23T03:20:46.165Z,8.33
2018-11-23T03:21:17.264Z,8.32
2018-11-23T03:21:48.370Z,8.27
2018-11-23T03:22:19.480Z,8.23
2018-11-23T03:22:50.650Z,8.22
2018-11-23T03:23:21.754Z,8.18
2018-11-23T03:23:52.858Z,8.11
2018-11-23T03:24:23.988Z,8.04
2018-11-23T03:24:55.120Z,7.99
2018-11-23T03:25:26.247Z,7.95
2018-11-23T03:25:57.366Z,7.92
2018-11-23T03:26:28.470Z,7.88
2018-11-23T03:26:59.572Z,7.86
2018-11-23T03:27:30.676Z,7.81
2018-11-23T03:28:01.903Z,7.76
2018-11-23T03:28:33.051Z,7.73
2018-11-23T03:29:04.148Z,7.70
2018-11-23T03:29:35.253Z,7.66
2018-11-23T03:30:06.400Z,7.61
2018-11-23T03:30:37.571Z,7.56
2018-11-23T03:31:12.539Z,7.56
2018-11-23T03:31:39.900Z,7.55
2018-11-23T03:32:11.095Z,7.54
2018-11-23T03:32:42.200Z,7.55
2018-11-23T03:33:13.342Z,7.55
2018-11-23T03:33:44.538Z,7.56
2018-11-23T03:34:15.639Z,7.55
2018-11-23T03:34:46.730Z,7.52
2018-11-23T03:35:17.881Z,7.51
2018-11-23T03:35:48.997Z,7.48
2018-11-23T03:36:20.108Z,7.48
2018-11-23T03:36:51.198Z,7.45
2018-11-23T03:37:22.319Z,7.44
2018-11-23T03:37:53.535Z,7.44
2018-11-23T03:38:24.679Z,7.41
2018-11-23T03:38:55.783Z,7.41
2018-11-23T03:39:27.985Z,7.45
2018-11-23T03:39:58.101Z,7.47
2018-11-23T03:40:29.208Z,7.50
2018-11-23T03:41:00.326Z,7.51
2018-11-23T03:41:31.425Z,7.50
2018-11-23T03:42:02.523Z,7.50
2018-11-23T03:42:33.626Z,7.52
2018-11-23T03:43:04.760Z,7.50
2018-11-23T03:43:35.904Z,7.49
2018-11-23T03:44:07.012Z,7.51
2018-11-23T03:44:38.124Z,7.50
2018-11-23T03:45:09.263Z,7.48
2018-11-23T03:45:40.370Z,7.50
2018-11-23T03:46:11.481Z,7.50
2018-11-23T03:46:42.583Z,7.48
2018-11-23T03:47:13.703Z,7.49
2018-11-23T03:47:44.816Z,7.48
2018-11-23T03:48:15.919Z,7.49
2018-11-23T03:48:47.083Z,7.50
2018-11-23T03:49:18.179Z,7.51
2018-11-23T03:49:49.299Z,7.51
2018-11-23T03:50:20.387Z,7.52
2018-11-23T03:50:51.483Z,7.52
2018-11-23T03:51:22.580Z,7.53
2018-11-23T03:51:53.688Z,7.52
2018-11-23T03:52:24.855Z,7.53
2018-11-23T03:52:55.952Z,7.55
2018-11-23T03:53:27.052Z,7.54
2018-11-23T03:53:58.195Z,7.52
2018-11-23T03:54:29.291Z,7.50
2018-11-23T03:55:00.394Z,7.48
2018-11-23T03:55:31.532Z,7.47
2018-11-23T03:56:02.643Z,7.44
2018-11-23T03:56:33.751Z,7.43
2018-11-23T03:57:04.863Z,7.44
2018-11-23T03:57:35.989Z,7.41
2018-11-23T03:58:07.099Z,7.39
2018-11-23T03:58:38.231Z,7.38
2018-11-23T03:59:09.380Z,7.35
2018-11-23T03:59:40.475Z,7.31
2018-11-23T04:00:17.177Z,7.33
2018-11-23T04:00:42.747Z,7.36
2018-11-23T04:01:13.850Z,7.36
2018-11-23T04:01:44.951Z,7.35
2018-11-23T04:02:16.052Z,7.33
2018-11-23T04:02:47.142Z,7.32
2018-11-23T04:03:18.248Z,7.28
2018-11-23T04:03:49.350Z,7.18
2018-11-23T04:04:20.497Z,7.17
2018-11-23T04:04:51.598Z,7.14
2018-11-23T04:05:22.736Z,7.10
2018-11-23T04:05:53.847Z,7.10
2018-11-23T04:06:24.961Z,7.09
2018-11-23T04:06:56.114Z,7.04
2018-11-23T04:07:27.219Z,7.03
2018-11-23T04:07:58.377Z,7.03
2018-11-23T04:08:29.488Z,7.00
2018-11-23T04:09:00.623Z,6.98
2018-11-23T04:09:31.727Z,6.97
2018-11-23T04:10:02.838Z,6.94
2018-11-23T04:10:33.933Z,6.90
2018-11-23T04:11:05.054Z,6.89
2018-11-23T04:11:36.163Z,6.88
2018-11-23T04:12:07.256Z,6.88
2018-11-23T04:12:38.383Z,6.87
2018-11-23T04:13:09.523Z,6.86
2018-11-23T04:13:40.631Z,6.83
2018-11-23T04:14:11.730Z,6.82
2018-11-23T04:14:42.871Z,6.83
2018-11-23T04:15:13.970Z,6.82
2018-11-23T04:15:45.081Z,6.80
2018-11-23T04:16:16.179Z,6.78
2018-11-23T04:16:47.280Z,6.75
2018-11-23T04:17:18.399Z,6.74
2018-11-23T04:17:49.507Z,6.73
2018-11-23T04:18:20.648Z,6.75
2018-11-23T04:18:51.766Z,6.76
2018-11-23T04:19:22.902Z,6.77
2018-11-23T04:19:54.010Z,6.78
2018-11-23T04:20:25.154Z,6.79
2018-11-23T04:20:56.259Z,6.78
2018-11-23T04:21:27.401Z,6.78
2018-11-23T04:21:58.508Z,6.74
2018-11-23T04:22:29.621Z,6.73
2018-11-23T04:23:00.727Z,6.75
2018-11-23T04:23:31.894Z,6.78
2018-11-23T04:24:03.015Z,6.80
2018-11-23T04:24:34.114Z,6.80
2018-11-23T04:25:05.208Z,6.78
2018-11-23T04:25:36.311Z,6.76
2018-11-23T04:26:07.507Z,6.72
2018-11-23T04:26:38.644Z,6.68
2018-11-23T04:27:09.754Z,6.65
2018-11-23T04:27:40.848Z,6.58
2018-11-23T04:28:11.995Z,6.54
2018-11-23T04:28:43.092Z,6.52
2018-11-23T04:29:14.268Z,6.48
2018-11-23T04:29:45.372Z,6.45
2018-11-23T04:30:16.471Z,6.42
2018-11-23T04:30:47.585Z,6.40
2018-11-23T04:31:18.693Z,6.42
2018-11-23T04:31:51.884Z,6.44
2018-11-23T04:32:22.997Z,6.47
2018-11-23T04:32:54.102Z,6.49
2018-11-23T04:33:25.358Z,6.51
2018-11-23T04:33:56.492Z,6.53
2018-11-23T04:34:27.602Z,6.54
2018-11-23T04:34:58.708Z,6.56
2018-11-23T04:35:29.810Z,6.58
2018-11-23T04:36:00.909Z,6.56
2018-11-23T04:36:32.013Z,6.56
2018-11-23T04:37:03.116Z,6.56
2018-11-23T04:37:34.213Z,6.57
2018-11-23T04:38:05.319Z,6.58
2018-11-23T04:38:36.467Z,6.58
2018-11-23T04:39:07.728Z,6.55
2018-11-23T04:39:38.835Z,6.53
2018-11-23T04:40:10.000Z,6.49
2018-11-23T04:40:41.103Z,6.47
2018-11-23T04:41:12.199Z,6.48
2018-11-23T04:41:46.510Z,6.49
2018-11-23T04:42:14.493Z,6.49
2018-11-23T04:42:45.638Z,6.47
2018-11-23T04:43:16.739Z,6.49
2018-11-23T04:43:47.848Z,6.50
2018-11-23T04:44:18.952Z,6.48
2018-11-23T04:44:50.967Z,6.49
2018-11-23T04:45:22.081Z,6.46
2018-11-23T04:45:53.203Z,6.49
2018-11-23T04:46:24.311Z,6.48
2018-11-23T04:46:55.444Z,6.49
2018-11-23T04:47:26.547Z,6.49
2018-11-23T04:47:57.651Z,6.50
2018-11-23T04:48:28.762Z,6.52
2018-11-23T04:49:00.644Z,6.51
2018-11-23T04:49:31.747Z,6.53
2018-11-23T04:50:02.851Z,6.54
2018-11-23T04:50:33.993Z,6.56
2018-11-23T04:51:05.108Z,6.57
2018-11-23T04:51:36.206Z,6.57
2018-11-23T04:52:07.303Z,6.57
2018-11-23T04:52:38.435Z,6.56
2018-11-23T04:53:11.275Z,6.52
2018-11-23T04:53:42.380Z,6.45
2018-11-23T04:54:13.516Z,6.46
2018-11-23T04:54:44.836Z,6.49
2018-11-23T04:55:15.937Z,6.50
2018-11-23T04:55:47.070Z,6.49
2018-11-23T04:56:18.163Z,6.49
2018-11-23T04:56:49.271Z,6.52
2018-11-23T04:57:20.384Z,6.53
2018-11-23T04:57:53.753Z,6.54
2018-11-23T04:58:22.671Z,6.50
2018-11-23T04:58:53.767Z,6.48
2018-11-23T04:59:24.885Z,6.45
2018-11-23T04:59:55.987Z,6.46
2018-11-23T05:00:27.083Z,6.45
2018-11-23T05:00:58.195Z,6.46
2018-11-23T05:01:29.351Z,6.46
2018-11-23T05:02:00.453Z,6.47
2018-11-23T05:02:31.551Z,6.49
2018-11-23T05:03:02.699Z,6.47
2018-11-23T05:03:33.837Z,6.47
2018-11-23T05:04:04.937Z,6.48
2018-11-23T05:04:36.041Z,6.51
2018-11-23T05:05:07.140Z,6.54
2018-11-23T05:05:38.239Z,6.54
2018-11-23T05:06:09.343Z,6.48
2018-11-23T05:06:40.447Z,6.45
2018-11-23T05:07:11.544Z,6.36
2018-11-23T05:07:42.644Z,6.42
2018-11-23T05:08:13.783Z,6.42
2018-11-23T05:08:44.895Z,6.42
2018-11-23T05:09:15.999Z,6.42
2018-11-23T05:09:47.104Z,6.43
2018-11-23T05:10:18.203Z,6.47
2018-11-23T05:10:49.299Z,6.49
2018-11-23T05:11:20.466Z,6.52
2018-11-23T05:11:51.564Z,6.54
2018-11-23T05:12:22.679Z,6.59
2018-11-23T05:12:53.782Z,6.62
2018-11-23T05:13:24.891Z,6.66
2018-11-23T05:13:55.995Z,6.69
2018-11-23T05:14:27.104Z,6.71
2018-11-23T05:14:58.215Z,6.71
2018-11-23T05:15:29.324Z,6.72
2018-11-23T05:16:01.136Z,6.74
2018-11-23T05:16:32.289Z,6.69
2018-11-23T05:17:03.398Z,6.64
2018-11-23T05:17:35.289Z,6.64
2018-11-23T05:18:06.392Z,6.65
2018-11-23T05:18:37.496Z,6.64
2018-11-23T05:19:08.635Z,6.59
2018-11-23T05:19:39.740Z,6.60
2018-11-23T05:20:10.853Z,6.64
2018-11-23T05:20:41.982Z,6.64
2018-11-23T05:21:13.086Z,6.66
2018-11-23T05:21:44.330Z,6.67
2018-11-23T05:22:15.427Z,6.66
2018-11-23T05:22:46.528Z,6.64
2018-11-23T05:23:17.635Z,6.63
2018-11-23T05:23:48.739Z,6.61
2018-11-23T05:24:20.694Z,6.57
2018-11-23T05:24:51.801Z,4.59
2018-11-23T05:25:22.907Z,6.54
2018-11-23T05:25:55.278Z,6.53
2018-11-23T05:26:26.978Z,6.45
2018-11-23T05:26:58.132Z,6.42
2018-11-23T05:27:29.319Z,6.43
2018-11-23T05:28:00.456Z,6.46
2018-11-23T05:28:31.586Z,6.45
2018-11-23T05:29:03.264Z,6.48
2018-11-23T05:29:34.374Z,6.50
2018-11-23T05:30:05.471Z,6.50
2018-11-23T05:30:36.854Z,6.49
2018-11-23T05:31:08.691Z,6.50
2018-11-23T05:31:39.801Z,6.49
2018-11-23T05:32:10.945Z,6.51
2018-11-23T05:32:42.056Z,6.51
2018-11-23T05:33:13.175Z,6.50
2018-11-23T05:33:44.287Z,6.51
2018-11-23T05:34:15.387Z,6.53
2018-11-23T05:34:46.496Z,6.48
2018-11-23T05:35:17.611Z,6.47
2018-11-23T05:35:48.717Z,6.52
2018-11-23T05:36:19.839Z,6.59
2018-11-23T05:36:50.940Z,6.63
2018-11-23T05:37:22.092Z,6.66
2018-11-23T05:37:53.936Z,6.61
2018-11-23T05:38:25.042Z,6.52
2018-11-23T05:38:56.195Z,6.47
2018-11-23T05:39:27.367Z,6.45
2018-11-23T05:39:58.472Z,6.40
2018-11-23T05:40:29.628Z,6.39
2018-11-23T05:41:00.738Z,6.37
2018-11-23T05:41:31.851Z,6.37
2018-11-23T05:42:03.007Z,6.35
2018-11-23T05:42:34.124Z,6.36
2018-11-23T05:43:05.214Z,6.34
2018-11-23T05:43:36.320Z,6.29
2018-11-23T05:44:07.444Z,6.26
2018-11-23T05:44:38.570Z,6.22
2018-11-23T05:45:09.671Z,6.17
2018-11-23T05:45:40.785Z,6.18
2018-11-23T05:46:11.938Z,6.15
2018-11-23T05:46:43.030Z,6.14
2018-11-23T05:47:14.135Z,6.16
2018-11-23T05:47:45.236Z,6.18
2018-11-23T05:48:16.404Z,6.20
2018-11-23T05:48:47.569Z,6.21
2018-11-23T05:49:18.786Z,6.24
2018-11-23T05:49:49.893Z,6.27
2018-11-23T05:50:20.997Z,6.31
2018-11-23T05:50:52.094Z,6.32
2018-11-23T05:51:23.247Z,6.32
2018-11-23T05:51:54.352Z,6.32
2018-11-23T05:52:25.459Z,6.30
2018-11-23T05:52:56.551Z,6.29
2018-11-23T05:53:27.696Z,6.28
2018-11-23T05:53:58.795Z,6.27
2018-11-23T05:54:29.956Z,6.28
2018-11-23T05:55:01.107Z,6.29
2018-11-23T05:55:32.202Z,6.32
2018-11-23T05:56:03.345Z,6.35
2018-11-23T05:56:34.480Z,6.36
2018-11-23T05:57:05.656Z,6.35
2018-11-23T05:57:36.768Z,6.35
2018-11-23T05:58:07.880Z,6.39
2018-11-23T05:58:38.975Z,6.43
2018-11-23T05:59:10.071Z,6.45
2018-11-23T05:59:41.168Z,6.50
2018-11-23T06:00:12.287Z,6.46
2018-11-23T06:00:43.423Z,6.47
2018-11-23T06:01:14.531Z,6.46
2018-11-23T06:01:45.639Z,6.47
2018-11-23T06:02:16.746Z,6.49
2018-11-23T06:02:47.856Z,6.49
2018-11-23T06:03:18.961Z,6.50
2018-11-23T06:03:50.104Z,6.49
2018-11-23T06:04:21.241Z,6.51
2018-11-23T06:04:52.339Z,6.52
2018-11-23T06:05:23.447Z,6.49
2018-11-23T06:05:54.548Z,6.50
2018-11-23T06:06:26.000Z,6.48
2018-11-23T06:06:56.807Z,6.47
2018-11-23T06:07:27.939Z,6.49
2018-11-23T06:07:59.051Z,6.47
2018-11-23T06:08:30.225Z,6.49
2018-11-23T06:09:01.380Z,6.48
2018-11-23T06:09:32.536Z,6.49
2018-11-23T06:10:03.651Z,6.50
2018-11-23T06:10:34.765Z,6.49
2018-11-23T06:11:05.870Z,6.48
2018-11-23T06:11:36.978Z,6.49
2018-11-23T06:12:08.121Z,6.48
2018-11-23T06:12:39.227Z,6.47
2018-11-23T06:13:10.330Z,6.46
2018-11-23T06:13:41.523Z,6.44
2018-11-23T06:14:12.630Z,6.45
2018-11-23T06:14:43.733Z,6.46
2018-11-23T06:15:14.836Z,6.46
2018-11-23T06:15:45.944Z,6.49
2018-11-23T06:16:17.044Z,6.50
2018-11-23T06:16:48.165Z,6.52
2018-11-23T06:17:19.279Z,6.52
2018-11-23T06:17:50.383Z,6.49
2018-11-23T06:18:21.486Z,6.46
2018-11-23T06:18:52.631Z,6.48
2018-11-23T06:19:23.731Z,6.49
2018-11-23T06:19:54.828Z,6.49
2018-11-23T06:20:25.933Z,6.50
2018-11-23T06:20:57.071Z,6.50
2018-11-23T06:21:28.179Z,6.53
2018-11-23T06:21:59.304Z,6.55
2018-11-23T06:22:32.628Z,6.54
2018-11-23T06:23:03.756Z,6.52
2018-11-23T06:23:34.856Z,6.53
2018-11-23T06:24:05.990Z,6.54
2018-11-23T06:24:37.120Z,6.53
2018-11-23T06:25:08.232Z,6.54
2018-11-23T06:25:39.331Z,6.55
2018-11-23T06:26:10.476Z,6.56
2018-11-23T06:26:41.572Z,6.57
2018-11-23T06:27:12.671Z,6.57
2018-11-23T06:27:43.787Z,6.59
2018-11-23T06:28:14.880Z,6.62
2018-11-23T06:28:45.981Z,6.66
2018-11-23T06:29:17.129Z,6.68
2018-11-23T06:29:48.251Z,6.71
2018-11-23T06:30:19.351Z,6.70
2018-11-23T06:30:50.463Z,6.70
2018-11-23T06:31:21.591Z,6.71
2018-11-23T06:31:52.688Z,6.74
2018-11-23T06:32:23.792Z,6.72
2018-11-23T06:32:54.920Z,6.74
2018-11-23T06:33:26.026Z,6.75
2018-11-23T06:33:57.135Z,6.76
2018-11-23T06:34:28.239Z,6.78
2018-11-23T06:34:59.341Z,6.80
2018-11-23T06:35:30.441Z,6.79
2018-11-23T06:36:01.596Z,6.82
2018-11-23T06:36:32.708Z,6.82
2018-11-23T06:37:03.815Z,6.82
2018-11-23T06:37:34.919Z,6.81
2018-11-23T06:38:06.015Z,6.83
2018-11-23T06:38:37.121Z,6.84
2018-11-23T06:39:08.225Z,6.88
2018-11-23T06:39:40.048Z,6.93
2018-11-23T06:40:12.492Z,6.95
2018-11-23T06:40:43.863Z,6.98
2018-11-23T06:41:19.001Z,5.79
2018-11-23T06:41:50.138Z,6.95
2018-11-23T06:42:21.600Z,6.94
2018-11-23T06:42:52.746Z,6.96
2018-11-23T06:43:23.877Z,6.97
2018-11-23T06:43:55.042Z,6.99
2018-11-23T06:44:26.175Z,7.00
2018-11-23T06:44:57.305Z,7.02
2018-11-23T06:45:28.400Z,7.03
2018-11-23T06:45:59.558Z,7.02
2018-11-23T06:46:30.705Z,7.02
2018-11-23T06:47:01.807Z,7.02
2018-11-23T06:47:32.911Z,7.04
2018-11-23T06:48:04.011Z,7.03
2018-11-23T06:48:35.108Z,7.08
2018-11-23T06:49:06.701Z,7.08
2018-11-23T06:49:37.823Z,7.09
2018-11-23T06:50:08.927Z,7.04
2018-11-23T06:50:40.064Z,7.04
2018-11-23T06:51:11.220Z,7.04
2018-11-23T06:51:43.280Z,7.06
2018-11-23T06:52:14.418Z,7.06
2018-11-23T06:52:45.562Z,7.05
2018-11-23T06:53:16.692Z,7.04
2018-11-23T06:53:47.831Z,7.07
2018-11-23T06:54:18.926Z,7.09
2018-11-23T06:54:50.098Z,7.11